Time;durP1;ratioP1;P1;durP2;ratioP2;P2;SDS_P1;SDS_P2;PMS_P1;PMS_P2;Temp;Humidity;BMP_temperature;BMP_pressure;BME280_temperature;BME280_humidity;BME280_pressure;Samples;Min_cycle;Max_cycle;Signal;HPM_P1;HPM_P2
2023/10/16 00:00:29;;;;;;;3.88;1.48;;;9.40;95.50;;;;;;6239852;23;20016;-70
2023/10/16 00:03:17;;;;;;;2.40;1.30;;;9.40;95.60;;;;;;6240646;23;20430;-70
2023/10/16 00:06:07;;;;;;;4.25;2.05;;;9.40;95.60;;;;;;6239986;23;20012;-71
2023/10/16 00:08:53;;;;;;;6.20;1.90;;;9.40;95.60;;;;;;6238916;23;20410;-71
2023/10/16 00:12:07;;;;;;;6.15;1.92;;;9.40;95.70;;;;;;6239604;23;20016;-69
2023/10/16 00:14:54;;;;;;;2.47;1.30;;;9.40;95.70;;;;;;6217743;23;20505;-72
2023/10/16 00:17:41;;;;;;;4.63;1.65;;;9.30;95.60;;;;;;6240180;23;20396;-71
2023/10/16 00:20:27;;;;;;;4.53;1.27;;;9.30;95.70;;;;;;6238751;23;20020;-71
2023/10/16 00:23:13;;;;;;;11.52;2.88;;;9.30;95.70;;;;;;6239990;23;20074;-71
2023/10/16 00:25:59;;;;;;;5.32;1.52;;;9.30;95.70;;;;;;6239992;23;20411;-71
2023/10/16 00:28:45;;;;;;;5.20;1.40;;;9.30;95.80;;;;;;6239399;23;20020;-70
2023/10/16 00:31:35;;;;;;;3.30;1.40;;;9.30;95.80;;;;;;6241170;23;20342;-72
2023/10/16 00:34:21;;;;;;;5.03;1.50;;;9.30;95.80;;;;;;6238167;23;20409;-70
2023/10/16 00:37:07;;;;;;;3.13;1.70;;;9.30;95.80;;;;;;6241869;23;20336;-70
2023/10/16 00:39:53;;;;;;;3.08;1.70;;;9.30;95.90;;;;;;6239530;23;20370;-71
2023/10/16 00:42:43;;;;;;;3.40;1.70;;;9.30;95.90;;;;;;6239160;23;20035;-70
2023/10/16 00:45:29;;;;;;;3.33;1.30;;;9.20;95.90;;;;;;6238986;23;20012;-70
2023/10/16 00:48:19;;;;;;;3.85;1.35;;;9.20;95.90;;;;;;6238659;23;20444;-71
2023/10/16 00:51:09;;;;;;;5.85;1.80;;;9.20;95.90;;;;;;6238190;23;20087;-71
2023/10/16 00:54:03;;;;;;;3.28;1.33;;;9.20;95.90;;;;;;6241110;23;20352;-70
2023/10/16 00:56:49;;;;;;;5.53;1.75;;;9.10;96.00;;;;;;6240712;22;20012;-71
2023/10/16 00:59:35;;;;;;;2.50;1.40;;;9.20;96.00;;;;;;6238858;23;20330;-70
2023/10/16 01:02:30;;;;;;;4.78;1.63;;;9.20;96.00;;;;;;6237741;23;20012;-70
2023/10/16 01:05:23;;;;;;;4.72;1.33;;;9.10;96.00;;;;;;6239977;23;20409;-70
2023/10/16 01:08:11;;;;;;;3.70;1.75;;;9.10;96.00;;;;;;6238786;23;20020;-70
2023/10/16 01:10:57;;;;;;;2.42;1.42;;;9.10;96.10;;;;;;6241350;23;20019;-71
2023/10/16 01:13:47;;;;;;;3.78;1.58;;;9.10;96.10;;;;;;6237827;23;20012;-70
2023/10/16 01:16:33;;;;;;;3.92;1.52;;;9.10;96.20;;;;;;6237827;23;20350;-70
2023/10/16 01:19:19;;;;;;;2.90;1.10;;;9.10;96.20;;;;;;6237749;23;20465;-70
2023/10/16 01:22:07;;;;;;;4.72;1.60;;;9.10;96.20;;;;;;6239667;23;20381;-69
2023/10/16 01:24:53;;;;;;;3.20;1.50;;;9.10;96.20;;;;;;6216421;23;20012;-70
2023/10/16 01:27:39;;;;;;;3.63;1.52;;;9.10;96.20;;;;;;6238060;23;20537;-71
2023/10/16 01:30:26;;;;;;;1.98;1.20;;;9.10;96.30;;;;;;6238424;23;20009;-71
2023/10/16 01:33:16;;;;;;;5.55;1.92;;;9.10;96.30;;;;;;6237985;23;20349;-71
2023/10/16 01:36:07;;;;;;;2.90;1.50;;;9.00;96.30;;;;;;6240825;23;20069;-72
2023/10/16 01:38:53;;;;;;;4.38;1.77;;;9.10;96.30;;;;;;6238549;23;20091;-71
2023/10/16 01:41:39;;;;;;;6.22;1.98;;;9.10;96.40;;;;;;6238005;23;20091;-72
2023/10/16 01:44:25;;;;;;;4.50;1.50;;;9.00;96.30;;;;;;6237616;23;20099;-71
2023/10/16 01:47:17;;;;;;;3.33;1.50;;;9.00;96.30;;;;;;6237254;23;20004;-70
2023/10/16 01:50:16;;;;;;;4.57;1.40;;;9.00;96.40;;;;;;6241216;23;20027;-71
2023/10/16 01:53:03;;;;;;;3.67;1.52;;;9.00;96.50;;;;;;6239142;23;20011;-71
2023/10/16 01:55:56;;;;;;;1.65;1.27;;;9.00;96.50;;;;;;6237785;22;20008;-71
2023/10/16 01:58:44;;;;;;;3.25;1.58;;;9.00;96.80;;;;;;6238336;23;20005;-71
2023/10/16 02:01:30;;;;;;;3.95;1.50;;;9.00;96.50;;;;;;6239291;23;20012;-71
2023/10/16 02:04:19;;;;;;;3.63;1.55;;;9.00;96.60;;;;;;6239189;23;20012;-71
2023/10/16 02:07:09;;;;;;;10.20;2.20;;;9.00;96.60;;;;;;6216264;23;20008;-71
2023/10/16 02:09:55;;;;;;;1.70;1.20;;;9.00;96.60;;;;;;6239316;23;20082;-72
2023/10/16 02:12:41;;;;;;;1.95;1.02;;;9.00;96.60;;;;;;6237693;23;20019;-71
2023/10/16 02:15:27;;;;;;;3.72;1.70;;;9.00;96.70;;;;;;6238675;23;20438;-71
2023/10/16 02:18:20;;;;;;;5.82;1.52;;;9.00;96.70;;;;;;6238593;23;20392;-71
2023/10/16 02:21:11;;;;;;;4.65;1.30;;;9.00;96.70;;;;;;6239890;23;20107;-85
2023/10/16 02:24:03;;;;;;;7.72;1.75;;;9.00;96.70;;;;;;6240320;23;20008;-87
2023/10/16 02:26:55;;;;;;;6.22;1.73;;;8.90;96.70;;;;;;6242021;23;20012;-85
2023/10/16 02:29:45;;;;;;;3.80;1.40;;;8.90;96.70;;;;;;6242864;23;20106;-86
2023/10/16 02:32:32;;;;;;;1.83;1.23;;;8.70;96.60;;;;;;6240435;23;20008;-85
2023/10/16 02:35:19;;;;;;;3.72;1.83;;;8.80;96.80;;;;;;6240340;23;20044;-84
2023/10/16 02:38:05;;;;;;;3.83;1.67;;;8.70;96.80;;;;;;6239616;23;20043;-83
2023/10/16 02:40:53;;;;;;;3.95;1.38;;;8.70;96.80;;;;;;6240828;23;20434;-87
2023/10/16 02:43:41;;;;;;;3.80;1.60;;;8.70;96.90;;;;;;6240917;23;20084;-86
2023/10/16 02:46:28;;;;;;;3.30;1.20;;;8.70;96.90;;;;;;6239877;23;20058;-86
2023/10/16 02:49:14;;;;;;;2.83;1.50;;;8.70;97.00;;;;;;6241450;23;20019;-88
2023/10/16 02:52:00;;;;;;;3.72;1.55;;;8.70;97.10;;;;;;6239167;23;20074;-83
2023/10/16 02:54:46;;;;;;;3.10;1.52;;;8.70;97.10;;;;;;6239955;23;20012;-85
2023/10/16 02:57:32;;;;;;;3.28;1.38;;;8.70;97.20;;;;;;6240212;22;20034;-82
2023/10/16 03:00:25;;;;;;;4.90;1.60;;;8.70;97.20;;;;;;6249564;23;20060;-82
2023/10/16 03:03:11;;;;;;;2.90;1.30;;;8.70;97.20;;;;;;6267499;22;20000;-90
2023/10/16 03:05:59;;;;;;;9.93;1.70;;;8.70;97.20;;;;;;6267004;22;20019;-92
2023/10/16 03:08:48;;;;;;;2.38;1.42;;;8.70;97.20;;;;;;6265723;22;20008;-94
2023/10/16 03:11:34;;;;;;;4.00;1.20;;;8.70;97.40;;;;;;6258314;23;20087;-93
2023/10/16 03:14:21;;;;;;;7.50;2.53;;;8.60;97.20;;;;;;6242451;23;20048;-87
2023/10/16 03:17:10;;;;;;;2.72;1.40;;;8.60;97.30;;;;;;6241999;23;20217;-90
2023/10/16 03:19:56;;;;;;;4.25;1.25;;;8.60;97.30;;;;;;6239993;23;20087;-86
2023/10/16 03:22:46;;;;;;;2.75;1.52;;;8.60;97.40;;;;;;6238770;23;20095;-87
2023/10/16 03:28:27;;;;;;;3.00;1.48;;;8.50;97.30;;;;;;6241197;23;20454;-87
2023/10/16 03:31:14;;;;;;;5.53;1.55;;;8.60;97.40;;;;;;6240038;23;20004;-86
2023/10/16 03:34:00;;;;;;;4.50;1.50;;;8.60;97.40;;;;;;6242403;23;20012;-83
2023/10/16 03:36:49;;;;;;;3.03;1.40;;;8.60;97.50;;;;;;6242463;23;20033;-86
2023/10/16 03:39:35;;;;;;;4.10;1.67;;;8.60;97.50;;;;;;6246210;23;20008;-87
2023/10/16 03:42:23;;;;;;;3.28;1.75;;;8.60;97.50;;;;;;6242951;23;20015;-83
2023/10/16 03:45:09;;;;;;;4.28;1.38;;;8.70;97.60;;;;;;6247315;23;20019;-87
2023/10/16 03:47:57;;;;;;;3.70;1.40;;;8.60;97.70;;;;;;6252509;23;20020;-85
2023/10/16 03:50:43;;;;;;;4.07;1.90;;;8.70;97.60;;;;;;6246702;23;20012;-86
2023/10/16 03:53:32;;;;;;;3.55;1.80;;;8.60;97.80;;;;;;6245107;23;20012;-84
2023/10/16 03:56:18;;;;;;;5.00;1.77;;;8.60;97.60;;;;;;6245450;22;20253;-87
2023/10/16 03:59:05;;;;;;;3.88;1.55;;;8.60;97.60;;;;;;6243587;23;20047;-90
2023/10/16 04:01:51;;;;;;;5.32;1.63;;;8.60;97.70;;;;;;6241932;23;20036;-87
2023/10/16 04:04:37;;;;;;;5.13;1.58;;;8.50;97.70;;;;;;6242633;23;20395;-86
2023/10/16 04:07:23;;;;;;;4.35;1.40;;;8.60;97.80;;;;;;6241594;23;20312;-87
2023/10/16 04:10:21;;;;;;;4.32;1.30;;;8.50;97.80;;;;;;6241230;23;20026;-85
2023/10/16 04:13:07;;;;;;;3.10;1.50;;;8.50;97.80;;;;;;6239672;23;20014;-86
2023/10/16 04:18:46;;;;;;;2.45;1.50;;;8.50;97.80;;;;;;6240518;23;20401;-84
2023/10/16 04:21:40;;;;;;;2.50;1.48;;;8.60;97.80;;;;;;6239698;23;20012;-85
2023/10/16 04:33:23;;;;;;;3.92;1.50;;;8.50;97.90;;;;;;6240808;23;20496;-75
2023/10/16 04:41:26;;;;;;;2.20;1.17;;;8.50;98.00;;;;;;6240566;23;20334;-77
2023/10/16 04:45:25;;;;;;;4.90;1.63;;;8.50;98.00;;;;;;6239129;23;20008;-76
2023/10/16 04:48:23;;;;;;;3.92;1.73;;;8.50;98.00;;;;;;6238597;23;20255;-72
2023/10/16 04:51:15;;;;;;;2.72;1.40;;;8.50;98.00;;;;;;6240807;23;20011;-79
2023/10/16 04:54:13;;;;;;;3.03;1.20;;;8.50;98.10;;;;;;6240126;23;20015;-71
2023/10/16 05:00:12;;;;;;;5.07;1.60;;;8.50;98.10;;;;;;6240572;23;20012;-77
2023/10/16 05:03:22;;;;;;;6.32;2.00;;;8.50;98.10;;;;;;6238435;23;20023;-79
2023/10/16 05:18:42;;;;;;;3.83;1.95;;;8.50;98.10;;;;;;6239631;23;20004;-78
2023/10/16 06:14:14;;;;;;;4.43;1.98;;;8.40;98.60;;;;;;6239364;23;20099;-75
2023/10/16 06:17:00;;;;;;;3.45;1.60;;;8.40;98.60;;;;;;6240452;23;20014;-75
2023/10/16 06:19:46;;;;;;;5.03;1.45;;;8.40;98.60;;;;;;6238730;23;20020;-77
2023/10/16 06:22:32;;;;;;;6.13;1.98;;;8.40;98.70;;;;;;6238300;23;20015;-78
2023/10/16 06:25:19;;;;;;;3.83;2.03;;;8.40;98.70;;;;;;6238507;23;20165;-77
2023/10/16 06:28:15;;;;;;;4.50;1.50;;;8.50;98.80;;;;;;6238979;23;20362;-77
2023/10/16 06:31:01;;;;;;;4.53;1.85;;;8.50;98.80;;;;;;6238083;23;20462;-76
2023/10/16 06:33:47;;;;;;;2.83;1.52;;;8.50;98.70;;;;;;6238992;23;20450;-76
2023/10/16 06:36:33;;;;;;;3.47;1.77;;;8.50;98.70;;;;;;6217796;23;20008;-76
2023/10/16 06:39:28;;;;;;;4.50;1.80;;;8.50;98.80;;;;;;6238778;23;20012;-76
2023/10/16 06:42:18;;;;;;;5.47;1.88;;;8.50;98.80;;;;;;6238735;23;20019;-76
2023/10/16 06:45:07;;;;;;;5.57;1.92;;;8.50;98.80;;;;;;6237756;23;20492;-76
2023/10/16 06:47:58;;;;;;;5.78;1.73;;;8.60;98.90;;;;;;6237746;23;20397;-76
2023/10/16 06:50:53;;;;;;;3.50;2.13;;;8.60;99.00;;;;;;6217768;23;20012;-75
2023/10/16 06:53:40;;;;;;;6.30;2.30;;;8.60;99.10;;;;;;6239048;23;20013;-77
2023/10/16 06:56:32;;;;;;;3.88;1.90;;;8.60;99.00;;;;;;6239303;22;20008;-75
2023/10/16 06:59:18;;;;;;;6.07;2.25;;;8.70;99.00;;;;;;6238980;23;20016;-76
2023/10/16 07:02:04;;;;;;;4.30;2.20;;;8.70;99.10;;;;;;6238771;23;20460;-76
2023/10/16 07:04:50;;;;;;;5.22;2.10;;;8.70;99.10;;;;;;6239014;23;20015;-78
2023/10/16 07:07:36;;;;;;;4.32;1.90;;;8.80;99.10;;;;;;6238184;23;20082;-75
2023/10/16 07:10:28;;;;;;;10.65;2.88;;;8.80;99.10;;;;;;6238926;23;20039;-75
2023/10/16 07:13:27;;;;;;;4.80;1.80;;;8.90;99.10;;;;;;6238043;23;20381;-72
2023/10/16 07:16:15;;;;;;;8.27;2.05;;;8.90;99.10;;;;;;6237726;23;20355;-73
2023/10/16 07:19:01;;;;;;;6.97;2.42;;;8.90;99.10;;;;;;6239336;23;20534;-73
2023/10/16 07:21:48;;;;;;;8.30;2.20;;;9.00;99.10;;;;;;6240796;23;20457;-74
2023/10/16 07:24:34;;;;;;;5.78;1.83;;;9.00;99.10;;;;;;6239037;23;20431;-73
2023/10/16 07:27:23;;;;;;;8.23;2.50;;;9.10;99.10;;;;;;6242196;23;20096;-72
2023/10/16 07:30:21;;;;;;;5.50;1.88;;;9.10;99.10;;;;;;6242248;23;20115;-73
2023/10/16 07:33:07;;;;;;;5.38;2.92;;;9.20;99.10;;;;;;6242595;23;20036;-74
2023/10/16 07:35:55;;;;;;;5.38;1.67;;;9.20;99.10;;;;;;6241474;23;20095;-73
2023/10/16 07:38:41;;;;;;;7.70;2.42;;;9.30;99.10;;;;;;6240988;23;20074;-73
2023/10/16 07:41:27;;;;;;;7.20;1.90;;;9.30;99.10;;;;;;6241995;23;20004;-74
2023/10/16 07:44:13;;;;;;;3.67;1.85;;;9.40;99.10;;;;;;6241314;23;20055;-74
2023/10/16 07:46:59;;;;;;;4.40;2.35;;;9.50;99.20;;;;;;6239958;23;20070;-74
2023/10/16 07:49:46;;;;;;;6.90;2.25;;;9.60;99.10;;;;;;6240015;23;20324;-74
2023/10/16 07:52:33;;;;;;;5.45;1.90;;;9.60;99.10;;;;;;6239484;23;20369;-73
2023/10/16 07:55:20;;;;;;;5.32;2.28;;;9.70;99.00;;;;;;6241349;23;20015;-74
2023/10/16 07:58:15;;;;;;;6.10;1.83;;;9.80;99.00;;;;;;6219328;23;20438;-77
2023/10/16 08:03:53;;;;;;;5.72;1.90;;;10.00;99.00;;;;;;6240554;23;20012;-78
2023/10/16 08:06:39;;;;;;;3.97;1.80;;;10.00;98.80;;;;;;6241667;23;20008;-75
2023/10/16 08:12:34;;;;;;;3.42;1.75;;;10.20;98.80;;;;;;6241097;23;20012;-76
2023/10/16 08:15:21;;;;;;;6.53;2.30;;;10.30;98.70;;;;;;6240766;23;20024;-74
2023/10/16 08:18:10;;;;;;;3.45;1.73;;;10.30;98.60;;;;;;6238104;23;20008;-73
2023/10/16 08:21:05;;;;;;;5.90;2.50;;;10.40;98.50;;;;;;6240108;23;20028;-74
2023/10/16 08:23:57;;;;;;;4.80;1.92;;;10.50;98.50;;;;;;6240567;23;20564;-74
2023/10/16 08:26:43;;;;;;;4.57;1.98;;;10.50;98.40;;;;;;6241853;23;20008;-74
2023/10/16 08:29:34;;;;;;;7.38;2.60;;;10.60;98.30;;;;;;6241252;23;20028;-74
2023/10/16 08:35:25;;;;;;;5.75;1.85;;;10.60;98.20;;;;;;6240115;23;20371;-76
2023/10/16 08:38:20;;;;;;;3.45;1.83;;;10.70;98.20;;;;;;6241548;23;20493;-75
2023/10/16 08:41:14;;;;;;;4.50;1.70;;;10.70;98.10;;;;;;6240317;23;20469;-74
2023/10/16 08:44:07;;;;;;;5.10;2.10;;;10.70;98.10;;;;;;6239328;23;20008;-74
2023/10/16 08:49:53;;;;;;;4.22;1.73;;;10.80;98.10;;;;;;6240870;23;20028;-74
2023/10/16 08:52:39;;;;;;;3.00;1.48;;;10.90;98.00;;;;;;6240030;23;20015;-74
2023/10/16 08:55:28;;;;;;;6.15;2.35;;;10.90;97.90;;;;;;6240242;23;20034;-75
2023/10/16 08:58:15;;;;;;;6.40;2.15;;;10.80;97.80;;;;;;6240161;23;20004;-74
2023/10/16 09:01:07;;;;;;;3.45;1.50;;;10.80;97.80;;;;;;6238683;23;20023;-74
2023/10/16 09:04:10;;;;;;;6.40;2.42;;;10.90;97.80;;;;;;6240046;23;20364;-74
2023/10/16 09:06:57;;;;;;;7.32;2.03;;;11.00;97.80;;;;;;6240930;23;20110;-74
2023/10/16 09:09:44;;;;;;;3.35;1.80;;;11.00;97.80;;;;;;6240767;23;20470;-75
2023/10/16 09:12:37;;;;;;;4.93;1.85;;;11.10;97.70;;;;;;6241919;23;20004;-75
2023/10/16 09:15:26;;;;;;;4.40;2.10;;;11.10;97.70;;;;;;6245399;23;20473;-75
2023/10/16 09:18:15;;;;;;;4.53;1.60;;;11.20;97.70;;;;;;6243909;23;20004;-77
2023/10/16 09:21:01;;;;;;;3.58;1.45;;;11.30;97.60;;;;;;6210216;23;20047;-74
2023/10/16 09:23:58;;;;;;;5.43;1.70;;;11.30;97.50;;;;;;6210179;23;20011;-76
2023/10/16 09:26:54;;;;;;;3.03;1.90;;;11.40;97.50;;;;;;6211637;23;20016;-76
2023/10/16 09:29:46;;;;;;;7.22;1.85;;;11.40;97.40;;;;;;6189548;23;20031;-76
2023/10/16 09:32:36;;;;;;;6.13;1.85;;;11.50;97.30;;;;;;6209703;23;20036;-71
2023/10/16 09:35:32;;;;;;;3.85;2.10;;;11.50;97.20;;;;;;6207184;23;20020;-74
2023/10/16 09:38:18;;;;;;;4.90;2.35;;;11.50;97.10;;;;;;6210768;23;20489;-76
2023/10/16 09:42:11;;;;;;;5.57;2.72;;;11.50;97.10;;;;;;6211149;23;20015;-75
2023/10/16 09:44:23;;;;;;;4.80;1.42;;;11.60;97.00;;;;;;6203612;23;20353;-74
2023/10/16 09:47:30;;;;;;;4.82;1.60;;;11.60;97.10;;;;;;6209738;23;20013;-75
2023/10/16 09:50:16;;;;;;;14.50;2.42;;;11.80;97.10;;;;;;6209858;23;20031;-76
2023/10/16 09:53:03;;;;;;;6.32;1.92;;;11.90;97.00;;;;;;6210706;23;20516;-74
2023/10/16 09:56:01;;;;;;;8.23;1.60;;;12.00;96.90;;;;;;6209388;23;20024;-77
2023/10/16 09:58:51;;;;;;;4.40;1.50;;;12.10;96.70;;;;;;6209669;23;20005;-76
2023/10/16 10:01:41;;;;;;;3.10;1.73;;;12.10;96.70;;;;;;6208588;23;20008;-75
2023/10/16 10:04:32;;;;;;;3.92;1.58;;;12.20;96.60;;;;;;6210574;23;20004;-76
2023/10/16 10:07:34;;;;;;;4.68;1.90;;;12.20;96.40;;;;;;6209892;23;20382;-76
2023/10/16 10:13:23;;;;;;;5.68;3.20;;;12.40;96.00;;;;;;6211024;23;20560;-74
2023/10/16 10:16:14;;;;;;;3.80;1.70;;;12.40;96.00;;;;;;6209840;23;20058;-77
2023/10/16 10:19:04;;;;;;;3.15;1.50;;;12.50;95.60;;;;;;6219495;23;20016;-75
2023/10/16 10:21:53;;;;;;;4.45;1.83;;;12.50;95.40;;;;;;6239163;23;20039;-75
2023/10/16 10:24:45;;;;;;;3.53;1.40;;;12.40;95.50;;;;;;6240407;23;20543;-76
2023/10/16 10:27:31;;;;;;;3.05;1.63;;;12.40;95.20;;;;;;6238631;23;20012;-76
2023/10/16 10:30:25;;;;;;;4.35;1.90;;;12.50;95.40;;;;;;6238983;23;20004;-75
2023/10/16 10:33:12;;;;;;;5.18;1.52;;;12.60;95.40;;;;;;6235934;23;20012;-76
2023/10/16 10:36:34;;;;;;;3.40;1.75;;;12.70;95.30;;;;;;6238957;23;20016;-75
2023/10/16 10:39:25;;;;;;;3.35;1.48;;;12.80;95.10;;;;;;6239795;23;20058;-75
2023/10/16 10:42:23;;;;;;;6.63;1.70;;;12.80;95.00;;;;;;6240149;23;20012;-75
2023/10/16 10:45:20;;;;;;;5.80;1.58;;;12.80;94.50;;;;;;6238207;23;20008;-75
2023/10/16 10:48:09;;;;;;;3.83;2.22;;;12.80;94.50;;;;;;6238771;23;20024;-77
2023/10/16 10:50:56;;;;;;;6.07;1.67;;;12.90;94.30;;;;;;6236146;23;20024;-75
2023/10/16 10:54:06;;;;;;;7.63;1.52;;;13.00;94.30;;;;;;6239258;23;20429;-75
2023/10/16 10:56:53;;;;;;;6.15;3.22;;;13.20;94.30;;;;;;6238433;22;20008;-75
2023/10/16 10:59:41;;;;;;;4.22;2.45;;;13.40;94.30;;;;;;6238646;23;20012;-74
2023/10/16 11:05:24;;;;;;;4.88;1.98;;;13.60;93.70;;;;;;6239934;23;20007;-76
2023/10/16 11:11:03;;;;;;;4.18;1.35;;;13.70;93.60;;;;;;6238612;23;20083;-76
2023/10/16 11:13:49;;;;;;;3.88;1.17;;;13.70;93.40;;;;;;6236959;23;20012;-76
2023/10/16 11:16:45;;;;;;;4.55;1.30;;;13.80;93.40;;;;;;6237320;23;20001;-74
2023/10/16 11:19:47;;;;;;;2.03;1.13;;;13.80;93.40;;;;;;6235615;23;20056;-73
2023/10/16 11:22:34;;;;;;;4.53;1.50;;;13.80;93.20;;;;;;6238450;23;20012;-73
2023/10/16 11:25:21;;;;;;;6.07;1.75;;;13.80;93.10;;;;;;6237401;23;20008;-72
2023/10/16 11:28:07;;;;;;;4.47;1.50;;;13.70;92.90;;;;;;6237744;23;20016;-72
2023/10/16 11:30:53;;;;;;;2.97;1.20;;;13.70;92.80;;;;;;6237581;23;20095;-73
2023/10/16 11:34:00;;;;;;;2.92;1.05;;;13.70;92.50;;;;;;6238096;23;20012;-72
2023/10/16 11:36:50;;;;;;;3.33;1.40;;;13.70;92.60;;;;;;6238577;23;20015;-73
2023/10/16 11:39:37;;;;;;;3.75;1.77;;;13.70;92.60;;;;;;6234564;23;20008;-73
2023/10/16 11:42:24;;;;;;;5.32;1.63;;;13.70;92.60;;;;;;6236733;23;20098;-74
2023/10/16 11:45:18;;;;;;;5.15;1.50;;;13.70;92.60;;;;;;6240275;23;20099;-73
2023/10/16 11:51:17;;;;;;;4.30;2.72;;;13.80;92.50;;;;;;6238457;23;20005;-73
2023/10/16 11:54:03;;;;;;;5.22;2.75;;;13.90;92.40;;;;;;6238873;23;20022;-74
2023/10/16 11:56:59;;;;;;;9.05;1.98;;;13.90;92.20;;;;;;6240646;22;20011;-73
2023/10/16 11:59:45;;;;;;;2.58;1.50;;;14.00;92.10;;;;;;6240481;23;20062;-75
2023/10/16 12:02:31;;;;;;;4.03;1.20;;;14.00;91.90;;;;;;6239326;23;20088;-73
2023/10/16 12:05:17;;;;;;;4.88;1.10;;;14.10;91.90;;;;;;6239224;23;20509;-71
2023/10/16 12:08:07;;;;;;;4.13;1.30;;;14.10;91.80;;;;;;6238817;23;20361;-74
2023/10/16 12:10:53;;;;;;;4.43;1.30;;;14.10;91.50;;;;;;6241567;23;20095;-73
2023/10/16 12:13:40;;;;;;;4.43;1.40;;;14.10;91.40;;;;;;6239149;23;20004;-74
2023/10/16 12:16:26;;;;;;;3.17;1.00;;;14.00;91.30;;;;;;6240341;23;20327;-75
2023/10/16 12:19:14;;;;;;;2.72;1.30;;;14.00;91.30;;;;;;6218489;23;20024;-74
2023/10/16 12:22:03;;;;;;;6.95;1.63;;;14.00;91.20;;;;;;6241467;23;20015;-73
2023/10/16 12:24:49;;;;;;;2.60;1.08;;;13.90;91.20;;;;;;6240623;23;20008;-74
2023/10/16 12:27:38;;;;;;;2.45;1.35;;;13.90;91.20;;;;;;6247100;23;20009;-73
2023/10/16 12:30:27;;;;;;;3.95;1.50;;;13.80;91.10;;;;;;6245644;23;20019;-74
2023/10/16 12:33:15;;;;;;;4.68;1.80;;;13.80;91.10;;;;;;6239194;23;20004;-74
2023/10/16 12:36:01;;;;;;;2.72;1.33;;;13.80;91.10;;;;;;6238875;23;20434;-74
2023/10/16 12:38:47;;;;;;;3.15;1.45;;;13.70;91.00;;;;;;6239412;23;20012;-74
2023/10/16 12:41:33;;;;;;;3.08;1.48;;;13.70;91.00;;;;;;6238444;23;20008;-74
2023/10/16 12:44:19;;;;;;;8.02;2.35;;;13.70;91.10;;;;;;6237080;23;20007;-75
2023/10/16 12:47:05;;;;;;;4.32;2.17;;;13.60;91.10;;;;;;6240276;23;20016;-74
2023/10/16 12:49:53;;;;;;;4.43;2.65;;;13.70;91.30;;;;;;6240058;23;20020;-74
2023/10/16 12:52:40;;;;;;;6.30;1.90;;;13.70;91.40;;;;;;6240733;23;20008;-74
2023/10/16 12:55:26;;;;;;;3.10;1.33;;;13.60;91.60;;;;;;6239189;22;20327;-75
2023/10/16 12:58:12;;;;;;;4.80;1.70;;;13.60;91.90;;;;;;6239926;23;20018;-74
2023/10/16 13:00:58;;;;;;;3.92;1.40;;;13.60;92.20;;;;;;6241065;23;20442;-74
2023/10/16 13:15:39;;;;;;;5.30;1.55;;;13.50;92.30;;;;;;5109166;27;20388;-71
2023/10/16 13:18:27;;;;;;;5.38;1.83;;;14.10;92.10;;;;;;5112672;27;20024;-71
2023/10/16 13:21:16;;;;;;;4.65;1.45;;;14.00;92.00;;;;;;5123063;27;20035;-71
2023/10/16 13:24:11;;;;;;;3.72;1.40;;;14.00;92.00;;;;;;5111562;27;20050;-71
2023/10/16 13:26:57;;;;;;;5.00;1.70;;;13.90;92.10;;;;;;5108054;28;20527;-72
2023/10/16 13:29:43;;;;;;;6.15;1.77;;;13.80;92.10;;;;;;5126062;28;20033;-72
2023/10/16 13:32:29;;;;;;;3.47;2.10;;;13.80;92.20;;;;;;5119891;28;20027;-72
2023/10/16 13:35:16;;;;;;;5.18;2.10;;;13.70;92.20;;;;;;5119169;28;20058;-72
2023/10/16 13:38:04;;;;;;;3.30;1.58;;;13.70;92.20;;;;;;5109823;28;20020;-73
2023/10/16 13:40:50;;;;;;;5.38;2.42;;;13.70;92.20;;;;;;5116911;28;20376;-73
2023/10/16 13:43:36;;;;;;;4.15;1.73;;;13.70;92.20;;;;;;5112160;28;20446;-71
2023/10/16 13:46:22;;;;;;;3.42;1.52;;;13.70;92.30;;;;;;5108397;27;20045;-72
2023/10/16 13:49:14;;;;;;;3.03;1.30;;;13.70;92.30;;;;;;5118766;27;20521;-71
2023/10/16 13:51:59;;;;;;;3.40;1.33;;;13.70;92.40;;;;;;5108726;28;20510;-71
2023/10/16 13:54:50;;;;;;;3.25;1.38;;;13.70;92.40;;;;;;5114335;27;20042;-71
2023/10/16 13:57:37;;;;;;;3.85;1.13;;;13.70;92.40;;;;;;5113768;28;20023;-71
2023/10/16 14:00:29;;;;;;;4.07;1.27;;;13.70;92.40;;;;;;5113030;27;20039;-71
2023/10/16 14:06:01;;;;;;;4.38;1.20;;;13.60;92.30;;;;;;5086935;28;20396;-70
2023/10/16 14:08:48;;;;;;;2.53;1.15;;;13.60;92.30;;;;;;5096536;28;20073;-73
2023/10/16 14:11:36;;;;;;;2.58;1.17;;;13.60;92.40;;;;;;5109828;27;20659;-72
2023/10/16 14:14:24;;;;;;;2.70;1.30;;;13.70;92.40;;;;;;5100404;28;20048;-69
2023/10/16 14:17:20;;;;;;;4.90;1.65;;;13.70;92.50;;;;;;5078340;28;20032;-72
2023/10/16 14:20:11;;;;;;;4.45;2.00;;;13.70;92.50;;;;;;5091061;28;20276;-66
2023/10/16 14:22:59;;;;;;;3.35;1.40;;;13.70;92.60;;;;;;5099848;28;20035;-72
2023/10/16 14:25:48;;;;;;;2.20;1.13;;;13.70;92.60;;;;;;5114196;28;20422;-71
2023/10/16 14:28:34;;;;;;;1.85;1.23;;;13.70;92.70;;;;;;5061941;28;20585;-70
2023/10/16 14:31:21;;;;;;;4.88;1.38;;;13.70;92.60;;;;;;5091031;28;20480;-70
2023/10/16 14:34:07;;;;;;;4.07;1.58;;;13.70;92.50;;;;;;5088654;28;20127;-70
2023/10/16 14:36:55;;;;;;;1.55;1.00;;;13.70;92.50;;;;;;5072399;28;20032;-70
2023/10/16 14:39:40;;;;;;;2.42;0.95;;;13.70;92.50;;;;;;5073823;28;20020;-70
2023/10/16 14:42:27;;;;;;;3.45;1.42;;;13.70;92.60;;;;;;5078881;28;20412;-70
2023/10/16 14:45:15;;;;;;;3.35;1.35;;;13.70;92.50;;;;;;5078052;28;20057;-70
2023/10/16 14:48:03;;;;;;;2.92;1.52;;;13.60;92.50;;;;;;5075861;28;20040;-70
2023/10/16 14:50:53;;;;;;;1.55;1.17;;;13.60;92.40;;;;;;5073673;28;20040;-70
2023/10/16 14:53:39;;;;;;;3.33;1.30;;;13.50;92.00;;;;;;5074343;28;20079;-70
2023/10/16 14:56:26;;;;;;;2.97;1.50;;;13.40;91.90;;;;;;5079448;28;20119;-70
2023/10/16 14:59:32;;;;;;;3.20;1.38;;;13.30;91.90;;;;;;5082548;28;20025;-70
2023/10/16 15:02:22;;;;;;;2.97;1.40;;;13.30;91.80;;;;;;5071983;28;20431;-71
2023/10/16 15:05:12;;;;;;;3.78;1.42;;;13.30;91.80;;;;;;5075510;28;20045;-71
2023/10/16 15:07:58;;;;;;;4.13;2.17;;;13.30;91.90;;;;;;5076205;28;20404;-70
2023/10/16 15:10:47;;;;;;;5.28;1.88;;;13.40;91.80;;;;;;5077273;28;20428;-70
2023/10/16 15:13:33;;;;;;;4.25;1.60;;;13.30;91.80;;;;;;5076311;28;20040;-71
2023/10/16 15:16:20;;;;;;;4.68;1.80;;;13.40;91.70;;;;;;5078337;28;20032;-70
2023/10/16 15:19:07;;;;;;;2.92;1.40;;;13.40;91.70;;;;;;5077247;28;20485;-71
2023/10/16 15:21:53;;;;;;;2.85;1.63;;;13.30;91.60;;;;;;5072429;28;20036;-71
2023/10/16 15:24:40;;;;;;;2.55;1.40;;;13.30;91.50;;;;;;5056285;28;20040;-70
2023/10/16 15:27:30;;;;;;;3.08;1.52;;;13.20;91.50;;;;;;5083861;28;20073;-70
2023/10/16 15:30:17;;;;;;;2.15;1.20;;;13.10;91.20;;;;;;5076094;28;20048;-70
2023/10/16 15:33:06;;;;;;;1.85;1.20;;;13.00;91.20;;;;;;5071542;28;20028;-70
2023/10/16 15:35:56;;;;;;;2.75;1.10;;;12.90;91.20;;;;;;5070888;28;20374;-70
2023/10/16 15:38:42;;;;;;;3.00;1.38;;;12.90;91.20;;;;;;5077513;28;20028;-69
2023/10/16 15:41:28;;;;;;;3.70;1.50;;;12.80;91.20;;;;;;5081750;28;20115;-70
2023/10/16 15:44:16;;;;;;;2.13;1.10;;;12.80;91.20;;;;;;5058082;28;20114;-70
2023/10/16 15:47:03;;;;;;;2.38;1.17;;;12.70;91.20;;;;;;5074819;28;20036;-71
2023/10/16 15:49:49;;;;;;;3.65;1.30;;;12.60;91.30;;;;;;5070970;28;20044;-71
2023/10/16 15:52:35;;;;;;;2.35;1.35;;;12.60;91.30;;;;;;5069603;28;20043;-70
2023/10/16 15:55:21;;;;;;;2.92;1.38;;;12.60;91.30;;;;;;5080069;28;20089;-70
2023/10/16 15:58:08;;;;;;;3.72;1.55;;;12.50;91.30;;;;;;5077397;28;20029;-70
2023/10/16 16:00:54;;;;;;;3.10;1.60;;;12.50;91.60;;;;;;5076577;28;20040;-70
2023/10/16 16:03:40;;;;;;;3.50;1.38;;;12.40;91.40;;;;;;5065215;28;20044;-70
2023/10/16 16:06:26;;;;;;;2.65;1.42;;;12.40;91.40;;;;;;5072651;28;20028;-71
2023/10/16 16:09:13;;;;;;;3.40;1.73;;;12.30;91.50;;;;;;5071620;28;20028;-71
2023/10/16 16:11:59;;;;;;;4.45;1.88;;;12.20;91.60;;;;;;5081917;28;20058;-70
2023/10/16 16:14:45;;;;;;;2.95;1.60;;;12.20;91.70;;;;;;5090120;28;20052;-71
2023/10/16 16:17:31;;;;;;;5.40;1.70;;;12.20;91.80;;;;;;5084668;28;20124;-71
2023/10/16 16:20:17;;;;;;;3.88;1.80;;;12.10;91.70;;;;;;5079529;28;20036;-71
2023/10/16 16:23:03;;;;;;;3.38;1.80;;;12.10;91.80;;;;;;5070598;28;20378;-71
2023/10/16 16:25:50;;;;;;;6.90;2.20;;;12.00;92.00;;;;;;5070069;28;20517;-71
2023/10/16 16:28:36;;;;;;;3.55;2.20;;;11.90;91.90;;;;;;5083941;28;20118;-69
2023/10/16 16:31:21;;;;;;;3.80;1.70;;;11.80;91.90;;;;;;5070218;28;20052;-65
2023/10/16 16:34:08;;;;;;;3.58;2.00;;;11.70;92.00;;;;;;5077691;28;20047;-68
2023/10/16 16:36:54;;;;;;;4.68;2.13;;;11.70;92.00;;;;;;5068819;28;20028;-69
2023/10/16 16:39:40;;;;;;;3.65;1.85;;;11.70;92.10;;;;;;5072835;28;20051;-67
2023/10/16 16:42:25;;;;;;;5.22;2.10;;;11.70;92.10;;;;;;5087305;28;20043;-69
2023/10/16 16:45:13;;;;;;;2.83;1.60;;;11.60;92.20;;;;;;5089311;28;20051;-68
2023/10/16 16:47:59;;;;;;;3.03;1.80;;;11.60;92.30;;;;;;5059119;28;20027;-69
2023/10/16 16:50:47;;;;;;;4.35;2.15;;;11.60;92.40;;;;;;5089283;28;20032;-69